sensor_id;sensor_type;location;lat;lon;timestamp;P1;durP1;ratioP1;P2;durP2;ratioP2
29724;SDS011;16636;48.394;15.468;2023-02-28T00:01:20;11.35;;;6.20;;
29724;SDS011;16636;48.394;15.468;2023-02-28T00:03:46;16.52;;;6.05;;
29724;SDS011;16636;48.394;15.468;2023-02-28T00:06:12;13.13;;;6.18;;
29724;SDS011;16636;48.394;15.468;2023-02-28T00:08:38;13.63;;;6.38;;
29724;SDS011;16636;48.394;15.468;2023-02-28T00:11:06;10.23;;;5.85;;
29724;SDS011;16636;48.394;15.468;2023-02-28T00:13:38;12.48;;;6.15;;
29724;SDS011;16636;48.394;15.468;2023-02-28T00:16:07;15.35;;;7.10;;
29724;SDS011;16636;48.394;15.468;2023-02-28T00:18:35;14.90;;;6.57;;
29724;SDS011;16636;48.394;15.468;2023-02-28T00:21:01;13.35;;;6.90;;
29724;SDS011;16636;48.394;15.468;2023-02-28T00:23:27;12.88;;;6.78;;
29724;SDS011;16636;48.394;15.468;2023-02-28T00:25:54;16.15;;;6.32;;
29724;SDS011;16636;48.394;15.468;2023-02-28T00:28:21;15.00;;;6.63;;
29724;SDS011;16636;48.394;15.468;2023-02-28T00:30:47;15.90;;;6.55;;
29724;SDS011;16636;48.394;15.468;2023-02-28T00:33:13;12.10;;;6.13;;
29724;SDS011;16636;48.394;15.468;2023-02-28T00:35:40;17.25;;;7.55;;
29724;SDS011;16636;48.394;15.468;2023-02-28T00:38:08;13.85;;;5.78;;
29724;SDS011;16636;48.394;15.468;2023-02-28T00:40:34;11.20;;;5.90;;
29724;SDS011;16636;48.394;15.468;2023-02-28T00:43:00;17.08;;;6.63;;
29724;SDS011;16636;48.394;15.468;2023-02-28T00:45:26;15.95;;;6.50;;
29724;SDS011;16636;48.394;15.468;2023-02-28T00:47:52;14.93;;;5.60;;
29724;SDS011;16636;48.394;15.468;2023-02-28T00:50:19;15.38;;;6.10;;
29724;SDS011;16636;48.394;15.468;2023-02-28T00:52:45;17.70;;;7.15;;
29724;SDS011;16636;48.394;15.468;2023-02-28T00:55:13;15.00;;;7.38;;
29724;SDS011;16636;48.394;15.468;2023-02-28T00:57:39;14.85;;;6.68;;
29724;SDS011;16636;48.394;15.468;2023-02-28T01:00:06;13.75;;;6.90;;
29724;SDS011;16636;48.394;15.468;2023-02-28T01:02:32;14.00;;;6.85;;
29724;SDS011;16636;48.394;15.468;2023-02-28T01:04:59;13.15;;;6.75;;
29724;SDS011;16636;48.394;15.468;2023-02-28T01:07:28;12.85;;;6.00;;
29724;SDS011;16636;48.394;15.468;2023-02-28T01:09:56;17.20;;;7.20;;
29724;SDS011;16636;48.394;15.468;2023-02-28T01:12:24;17.23;;;7.03;;
29724;SDS011;16636;48.394;15.468;2023-02-28T01:14:50;15.90;;;6.60;;
29724;SDS011;16636;48.394;15.468;2023-02-28T01:17:16;14.05;;;7.15;;
29724;SDS011;16636;48.394;15.468;2023-02-28T01:19:41;13.07;;;6.20;;
29724;SDS011;16636;48.394;15.468;2023-02-28T01:22:08;15.70;;;7.50;;
29724;SDS011;16636;48.394;15.468;2023-02-28T01:24:34;21.08;;;8.05;;
29724;SDS011;16636;48.394;15.468;2023-02-28T01:27:00;13.68;;;7.20;;
29724;SDS011;16636;48.394;15.468;2023-02-28T01:29:26;17.45;;;8.13;;
29724;SDS011;16636;48.394;15.468;2023-02-28T01:31:52;19.90;;;7.63;;
29724;SDS011;16636;48.394;15.468;2023-02-28T01:34:19;17.92;;;6.57;;
29724;SDS011;16636;48.394;15.468;2023-02-28T01:36:45;19.17;;;7.53;;
29724;SDS011;16636;48.394;15.468;2023-02-28T01:39:11;14.05;;;7.00;;
29724;SDS011;16636;48.394;15.468;2023-02-28T01:41:38;14.00;;;5.78;;
29724;SDS011;16636;48.394;15.468;2023-02-28T01:47:11;19.17;;;7.83;;
29724;SDS011;16636;48.394;15.468;2023-02-28T01:49:37;16.27;;;7.50;;
29724;SDS011;16636;48.394;15.468;2023-02-28T01:52:04;19.52;;;8.00;;
29724;SDS011;16636;48.394;15.468;2023-02-28T01:54:31;16.02;;;7.97;;
29724;SDS011;16636;48.394;15.468;2023-02-28T01:57:06;16.00;;;7.03;;
29724;SDS011;16636;48.394;15.468;2023-02-28T01:59:39;14.85;;;6.82;;
29724;SDS011;16636;48.394;15.468;2023-02-28T02:02:16;17.13;;;6.63;;
29724;SDS011;16636;48.394;15.468;2023-02-28T02:04:48;13.95;;;6.20;;
29724;SDS011;16636;48.394;15.468;2023-02-28T02:07:15;15.95;;;7.65;;
29724;SDS011;16636;48.394;15.468;2023-02-28T02:09:44;15.52;;;6.07;;
29724;SDS011;16636;48.394;15.468;2023-02-28T02:12:21;16.77;;;6.88;;
29724;SDS011;16636;48.394;15.468;2023-02-28T02:15:09;16.67;;;6.93;;
29724;SDS011;16636;48.394;15.468;2023-02-28T02:17:52;18.25;;;7.78;;
29724;SDS011;16636;48.394;15.468;2023-02-28T02:23:25;14.40;;;6.72;;
29724;SDS011;16636;48.394;15.468;2023-02-28T02:34:52;16.70;;;7.55;;
29724;SDS011;16636;48.394;15.468;2023-02-28T02:37:38;19.15;;;7.95;;
29724;SDS011;16636;48.394;15.468;2023-02-28T02:43:07;19.35;;;7.55;;
29724;SDS011;16636;48.394;15.468;2023-02-28T02:48:15;17.45;;;7.93;;
29724;SDS011;16636;48.394;15.468;2023-02-28T02:50:54;15.90;;;7.18;;
29724;SDS011;16636;48.394;15.468;2023-02-28T02:53:36;15.13;;;7.35;;
29724;SDS011;16636;48.394;15.468;2023-02-28T02:56:07;16.00;;;7.38;;
29724;SDS011;16636;48.394;15.468;2023-02-28T02:58:35;18.88;;;7.43;;
29724;SDS011;16636;48.394;15.468;2023-02-28T03:01:18;13.77;;;6.95;;
29724;SDS011;16636;48.394;15.468;2023-02-28T03:03:55;18.90;;;7.78;;
29724;SDS011;16636;48.394;15.468;2023-02-28T03:06:30;17.92;;;7.22;;
29724;SDS011;16636;48.394;15.468;2023-02-28T03:08:56;17.95;;;8.25;;
29724;SDS011;16636;48.394;15.468;2023-02-28T03:11:22;17.77;;;8.38;;
29724;SDS011;16636;48.394;15.468;2023-02-28T03:17:03;14.13;;;6.75;;
29724;SDS011;16636;48.394;15.468;2023-02-28T03:25:07;18.02;;;7.05;;
29724;SDS011;16636;48.394;15.468;2023-02-28T03:32:57;19.60;;;7.35;;
29724;SDS011;16636;48.394;15.468;2023-02-28T03:35:48;22.83;;;7.70;;
29724;SDS011;16636;48.394;15.468;2023-02-28T03:38:29;17.90;;;8.10;;
29724;SDS011;16636;48.394;15.468;2023-02-28T03:41:02;19.23;;;7.93;;
29724;SDS011;16636;48.394;15.468;2023-02-28T03:43:38;20.95;;;8.70;;
29724;SDS011;16636;48.394;15.468;2023-02-28T03:46:09;22.17;;;8.40;;
29724;SDS011;16636;48.394;15.468;2023-02-28T03:48:40;13.38;;;7.13;;
29724;SDS011;16636;48.394;15.468;2023-02-28T03:51:11;16.88;;;7.57;;
29724;SDS011;16636;48.394;15.468;2023-02-28T03:53:44;22.45;;;8.38;;
29724;SDS011;16636;48.394;15.468;2023-02-28T03:56:34;19.00;;;8.07;;
29724;SDS011;16636;48.394;15.468;2023-02-28T04:02:11;17.73;;;8.05;;
29724;SDS011;16636;48.394;15.468;2023-02-28T04:04:37;19.30;;;7.75;;
29724;SDS011;16636;48.394;15.468;2023-02-28T04:07:07;15.10;;;7.35;;
29724;SDS011;16636;48.394;15.468;2023-02-28T04:09:34;17.67;;;7.05;;
29724;SDS011;16636;48.394;15.468;2023-02-28T04:12:00;22.30;;;8.25;;
29724;SDS011;16636;48.394;15.468;2023-02-28T04:14:26;18.00;;;7.82;;
29724;SDS011;16636;48.394;15.468;2023-02-28T04:16:52;18.27;;;8.50;;
29724;SDS011;16636;48.394;15.468;2023-02-28T04:19:18;14.02;;;7.20;;
29724;SDS011;16636;48.394;15.468;2023-02-28T04:21:48;22.25;;;8.38;;
29724;SDS011;16636;48.394;15.468;2023-02-28T04:24:20;13.23;;;7.03;;
29724;SDS011;16636;48.394;15.468;2023-02-28T04:26:52;17.35;;;8.85;;
29724;SDS011;16636;48.394;15.468;2023-02-28T04:29:21;15.85;;;7.60;;
29724;SDS011;16636;48.394;15.468;2023-02-28T04:31:52;22.48;;;7.93;;
29724;SDS011;16636;48.394;15.468;2023-02-28T04:34:19;18.63;;;8.68;;
29724;SDS011;16636;48.394;15.468;2023-02-28T04:36:47;15.27;;;8.07;;
29724;SDS011;16636;48.394;15.468;2023-02-28T04:39:16;16.70;;;8.65;;
29724;SDS011;16636;48.394;15.468;2023-02-28T04:41:44;17.42;;;8.40;;
29724;SDS011;16636;48.394;15.468;2023-02-28T04:44:10;19.58;;;8.25;;
29724;SDS011;16636;48.394;15.468;2023-02-28T04:46:36;16.90;;;8.15;;
29724;SDS011;16636;48.394;15.468;2023-02-28T04:49:03;24.10;;;8.70;;
29724;SDS011;16636;48.394;15.468;2023-02-28T04:51:29;19.45;;;8.23;;
29724;SDS011;16636;48.394;15.468;2023-02-28T04:53:55;21.15;;;8.95;;
29724;SDS011;16636;48.394;15.468;2023-02-28T04:56:21;18.38;;;8.52;;
29724;SDS011;16636;48.394;15.468;2023-02-28T04:58:48;20.55;;;7.10;;
29724;SDS011;16636;48.394;15.468;2023-02-28T05:01:21;19.60;;;8.70;;
29724;SDS011;16636;48.394;15.468;2023-02-28T05:03:51;22.17;;;9.57;;
29724;SDS011;16636;48.394;15.468;2023-02-28T05:06:18;17.38;;;7.18;;
29724;SDS011;16636;48.394;15.468;2023-02-28T05:08:45;15.35;;;7.75;;
29724;SDS011;16636;48.394;15.468;2023-02-28T05:11:13;18.38;;;7.63;;
29724;SDS011;16636;48.394;15.468;2023-02-28T05:13:42;19.20;;;7.25;;
29724;SDS011;16636;48.394;15.468;2023-02-28T05:16:08;22.23;;;8.07;;
29724;SDS011;16636;48.394;15.468;2023-02-28T05:18:35;22.17;;;8.18;;
29724;SDS011;16636;48.394;15.468;2023-02-28T05:21:02;15.13;;;6.95;;
29724;SDS011;16636;48.394;15.468;2023-02-28T05:23:28;21.88;;;8.25;;
29724;SDS011;16636;48.394;15.468;2023-02-28T05:25:54;23.55;;;10.27;;
29724;SDS011;16636;48.394;15.468;2023-02-28T05:28:21;25.30;;;11.35;;
29724;SDS011;16636;48.394;15.468;2023-02-28T05:30:47;18.27;;;9.05;;
29724;SDS011;16636;48.394;15.468;2023-02-28T05:33:13;16.58;;;9.50;;
29724;SDS011;16636;48.394;15.468;2023-02-28T05:35:40;23.75;;;9.10;;
29724;SDS011;16636;48.394;15.468;2023-02-28T05:38:08;20.08;;;9.10;;
29724;SDS011;16636;48.394;15.468;2023-02-28T05:40:34;22.52;;;8.77;;
29724;SDS011;16636;48.394;15.468;2023-02-28T05:43:00;20.42;;;8.32;;
29724;SDS011;16636;48.394;15.468;2023-02-28T05:45:26;16.60;;;8.05;;
29724;SDS011;16636;48.394;15.468;2023-02-28T05:47:55;18.95;;;8.52;;
29724;SDS011;16636;48.394;15.468;2023-02-28T05:50:21;21.15;;;8.32;;
29724;SDS011;16636;48.394;15.468;2023-02-28T05:52:51;20.70;;;7.85;;
29724;SDS011;16636;48.394;15.468;2023-02-28T05:55:18;18.20;;;8.13;;
29724;SDS011;16636;48.394;15.468;2023-02-28T05:57:44;22.42;;;8.25;;
29724;SDS011;16636;48.394;15.468;2023-02-28T06:00:10;16.42;;;8.63;;
29724;SDS011;16636;48.394;15.468;2023-02-28T06:02:40;19.33;;;9.18;;
29724;SDS011;16636;48.394;15.468;2023-02-28T06:05:09;23.88;;;9.10;;
29724;SDS011;16636;48.394;15.468;2023-02-28T06:07:40;19.08;;;8.13;;
29724;SDS011;16636;48.394;15.468;2023-02-28T06:10:06;18.83;;;8.40;;
29724;SDS011;16636;48.394;15.468;2023-02-28T06:12:32;25.38;;;9.52;;
29724;SDS011;16636;48.394;15.468;2023-02-28T06:14:58;25.35;;;8.75;;
29724;SDS011;16636;48.394;15.468;2023-02-28T06:17:24;20.02;;;9.93;;
29724;SDS011;16636;48.394;15.468;2023-02-28T06:19:50;22.13;;;10.30;;
29724;SDS011;16636;48.394;15.468;2023-02-28T06:22:16;23.27;;;9.55;;
29724;SDS011;16636;48.394;15.468;2023-02-28T06:24:42;18.42;;;8.40;;
29724;SDS011;16636;48.394;15.468;2023-02-28T06:27:08;20.15;;;8.63;;
29724;SDS011;16636;48.394;15.468;2023-02-28T06:29:34;19.65;;;8.10;;
29724;SDS011;16636;48.394;15.468;2023-02-28T06:32:01;24.55;;;9.15;;
29724;SDS011;16636;48.394;15.468;2023-02-28T06:34:27;239.85;;;53.30;;
29724;SDS011;16636;48.394;15.468;2023-02-28T06:36:53;129.70;;;37.63;;
29724;SDS011;16636;48.394;15.468;2023-02-28T06:39:19;94.07;;;30.10;;
29724;SDS011;16636;48.394;15.468;2023-02-28T06:41:45;62.28;;;20.88;;
29724;SDS011;16636;48.394;15.468;2023-02-28T06:44:13;34.95;;;12.40;;
29724;SDS011;16636;48.394;15.468;2023-02-28T06:46:41;28.08;;;10.88;;
29724;SDS011;16636;48.394;15.468;2023-02-28T06:49:09;24.13;;;10.02;;
29724;SDS011;16636;48.394;15.468;2023-02-28T06:51:36;19.02;;;8.43;;
29724;SDS011;16636;48.394;15.468;2023-02-28T06:54:09;25.40;;;9.57;;
29724;SDS011;16636;48.394;15.468;2023-02-28T06:56:35;18.90;;;8.60;;
29724;SDS011;16636;48.394;15.468;2023-02-28T06:59:01;19.90;;;8.38;;
29724;SDS011;16636;48.394;15.468;2023-02-28T07:01:28;16.92;;;7.93;;
29724;SDS011;16636;48.394;15.468;2023-02-28T07:03:54;22.75;;;9.02;;
29724;SDS011;16636;48.394;15.468;2023-02-28T07:06:20;19.02;;;8.18;;
29724;SDS011;16636;48.394;15.468;2023-02-28T07:08:48;22.27;;;9.05;;
29724;SDS011;16636;48.394;15.468;2023-02-28T07:11:15;17.55;;;7.93;;
29724;SDS011;16636;48.394;15.468;2023-02-28T07:13:41;22.40;;;7.72;;
29724;SDS011;16636;48.394;15.468;2023-02-28T07:16:09;19.33;;;8.27;;
29724;SDS011;16636;48.394;15.468;2023-02-28T07:18:36;21.45;;;9.35;;
29724;SDS011;16636;48.394;15.468;2023-02-28T07:21:03;25.80;;;10.20;;
29724;SDS011;16636;48.394;15.468;2023-02-28T07:23:30;21.42;;;9.63;;
29724;SDS011;16636;48.394;15.468;2023-02-28T07:25:57;25.08;;;8.98;;
29724;SDS011;16636;48.394;15.468;2023-02-28T07:28:23;17.20;;;8.00;;
29724;SDS011;16636;48.394;15.468;2023-02-28T07:30:49;23.77;;;8.90;;
29724;SDS011;16636;48.394;15.468;2023-02-28T07:33:15;17.67;;;8.18;;
29724;SDS011;16636;48.394;15.468;2023-02-28T07:35:41;24.08;;;8.90;;
29724;SDS011;16636;48.394;15.468;2023-02-28T07:38:08;22.35;;;9.80;;
29724;SDS011;16636;48.394;15.468;2023-02-28T07:40:35;25.85;;;8.40;;
29724;SDS011;16636;48.394;15.468;2023-02-28T07:43:01;19.70;;;8.20;;
29724;SDS011;16636;48.394;15.468;2023-02-28T07:45:28;15.18;;;7.82;;
29724;SDS011;16636;48.394;15.468;2023-02-28T07:47:56;18.73;;;8.45;;
29724;SDS011;16636;48.394;15.468;2023-02-28T07:50:23;20.38;;;9.07;;
29724;SDS011;16636;48.394;15.468;2023-02-28T07:52:49;18.00;;;8.70;;
29724;SDS011;16636;48.394;15.468;2023-02-28T07:55:15;18.40;;;9.02;;
29724;SDS011;16636;48.394;15.468;2023-02-28T07:57:42;13.25;;;7.00;;
29724;SDS011;16636;48.394;15.468;2023-02-28T08:00:08;26.90;;;10.45;;
29724;SDS011;16636;48.394;15.468;2023-02-28T08:02:39;23.17;;;10.02;;
29724;SDS011;16636;48.394;15.468;2023-02-28T08:05:06;21.63;;;8.93;;
29724;SDS011;16636;48.394;15.468;2023-02-28T08:07:32;21.20;;;9.73;;
29724;SDS011;16636;48.394;15.468;2023-02-28T08:09:58;25.42;;;9.93;;
29724;SDS011;16636;48.394;15.468;2023-02-28T08:12:25;17.88;;;8.40;;
29724;SDS011;16636;48.394;15.468;2023-02-28T08:14:51;26.85;;;9.23;;
29724;SDS011;16636;48.394;15.468;2023-02-28T08:17:17;21.30;;;9.95;;
29724;SDS011;16636;48.394;15.468;2023-02-28T08:19:45;22.55;;;8.98;;
29724;SDS011;16636;48.394;15.468;2023-02-28T08:22:11;22.05;;;8.93;;
29724;SDS011;16636;48.394;15.468;2023-02-28T08:24:38;19.00;;;8.73;;
29724;SDS011;16636;48.394;15.468;2023-02-28T08:27:06;22.30;;;9.70;;
29724;SDS011;16636;48.394;15.468;2023-02-28T08:29:32;20.63;;;9.52;;
29724;SDS011;16636;48.394;15.468;2023-02-28T08:31:58;20.40;;;8.95;;
29724;SDS011;16636;48.394;15.468;2023-02-28T08:34:24;20.10;;;9.18;;
29724;SDS011;16636;48.394;15.468;2023-02-28T08:36:50;17.63;;;9.18;;
29724;SDS011;16636;48.394;15.468;2023-02-28T08:39:16;20.90;;;9.45;;
29724;SDS011;16636;48.394;15.468;2023-02-28T08:41:43;18.42;;;9.40;;
29724;SDS011;16636;48.394;15.468;2023-02-28T08:44:09;23.67;;;9.02;;
29724;SDS011;16636;48.394;15.468;2023-02-28T08:46:35;23.10;;;10.32;;
29724;SDS011;16636;48.394;15.468;2023-02-28T08:49:01;18.73;;;9.27;;
29724;SDS011;16636;48.394;15.468;2023-02-28T08:51:27;18.27;;;9.40;;
29724;SDS011;16636;48.394;15.468;2023-02-28T08:53:58;22.98;;;10.27;;
29724;SDS011;16636;48.394;15.468;2023-02-28T08:56:26;20.27;;;9.63;;
29724;SDS011;16636;48.394;15.468;2023-02-28T08:58:54;19.45;;;9.23;;
29724;SDS011;16636;48.394;15.468;2023-02-28T09:01:22;20.17;;;10.23;;
29724;SDS011;16636;48.394;15.468;2023-02-28T09:03:52;19.88;;;9.13;;
29724;SDS011;16636;48.394;15.468;2023-02-28T09:06:18;22.63;;;9.95;;
29724;SDS011;16636;48.394;15.468;2023-02-28T09:08:46;17.65;;;8.75;;
29724;SDS011;16636;48.394;15.468;2023-02-28T09:11:12;20.98;;;8.85;;
29724;SDS011;16636;48.394;15.468;2023-02-28T09:13:39;18.85;;;9.55;;
29724;SDS011;16636;48.394;15.468;2023-02-28T09:16:06;16.75;;;9.27;;
29724;SDS011;16636;48.394;15.468;2023-02-28T09:18:34;18.25;;;8.75;;
29724;SDS011;16636;48.394;15.468;2023-02-28T09:21:12;22.60;;;10.02;;
29724;SDS011;16636;48.394;15.468;2023-02-28T09:23:44;20.58;;;9.00;;
29724;SDS011;16636;48.394;15.468;2023-02-28T09:26:15;17.35;;;9.85;;
29724;SDS011;16636;48.394;15.468;2023-02-28T09:28:43;18.52;;;9.55;;
29724;SDS011;16636;48.394;15.468;2023-02-28T09:31:20;20.52;;;9.02;;
29724;SDS011;16636;48.394;15.468;2023-02-28T09:33:48;23.42;;;10.32;;
29724;SDS011;16636;48.394;15.468;2023-02-28T09:36:15;22.42;;;11.07;;
29724;SDS011;16636;48.394;15.468;2023-02-28T09:38:41;24.08;;;10.25;;
29724;SDS011;16636;48.394;15.468;2023-02-28T09:41:15;24.48;;;10.98;;
29724;SDS011;16636;48.394;15.468;2023-02-28T09:43:44;22.73;;;10.40;;
29724;SDS011;16636;48.394;15.468;2023-02-28T09:46:37;20.92;;;9.93;;
29724;SDS011;16636;48.394;15.468;2023-02-28T09:49:10;9.00;;;5.10;;
29724;SDS011;16636;48.394;15.468;2023-02-28T09:51:46;17.75;;;8.85;;
29724;SDS011;16636;48.394;15.468;2023-02-28T09:54:15;19.05;;;10.00;;
29724;SDS011;16636;48.394;15.468;2023-02-28T09:56:51;22.20;;;8.45;;
29724;SDS011;16636;48.394;15.468;2023-02-28T09:59:42;18.77;;;9.43;;
29724;SDS011;16636;48.394;15.468;2023-02-28T10:09:54;24.10;;;11.18;;
29724;SDS011;16636;48.394;15.468;2023-02-28T10:12:23;22.58;;;10.60;;
29724;SDS011;16636;48.394;15.468;2023-02-28T10:14:52;22.00;;;10.45;;
29724;SDS011;16636;48.394;15.468;2023-02-28T10:17:20;20.75;;;10.65;;
29724;SDS011;16636;48.394;15.468;2023-02-28T10:20:07;22.23;;;11.02;;
29724;SDS011;16636;48.394;15.468;2023-02-28T10:25:23;21.10;;;10.25;;
29724;SDS011;16636;48.394;15.468;2023-02-28T10:28:01;20.00;;;9.73;;
29724;SDS011;16636;48.394;15.468;2023-02-28T10:30:39;21.42;;;10.95;;
29724;SDS011;16636;48.394;15.468;2023-02-28T10:33:29;20.67;;;10.70;;
29724;SDS011;16636;48.394;15.468;2023-02-28T10:35:59;22.00;;;10.23;;
29724;SDS011;16636;48.394;15.468;2023-02-28T10:38:28;21.13;;;10.27;;
29724;SDS011;16636;48.394;15.468;2023-02-28T10:43:32;20.10;;;10.38;;
29724;SDS011;16636;48.394;15.468;2023-02-28T10:46:12;20.30;;;10.13;;
29724;SDS011;16636;48.394;15.468;2023-02-28T10:49:00;22.20;;;10.02;;
29724;SDS011;16636;48.394;15.468;2023-02-28T10:51:38;25.55;;;11.43;;
29724;SDS011;16636;48.394;15.468;2023-02-28T10:54:05;22.17;;;9.93;;
29724;SDS011;16636;48.394;15.468;2023-02-28T10:56:39;17.35;;;8.73;;
29724;SDS011;16636;48.394;15.468;2023-02-28T10:59:27;17.10;;;9.63;;
29724;SDS011;16636;48.394;15.468;2023-02-28T11:01:55;18.67;;;9.85;;
29724;SDS011;16636;48.394;15.468;2023-02-28T11:06:53;22.50;;;10.80;;
29724;SDS011;16636;48.394;15.468;2023-02-28T11:09:27;19.45;;;10.00;;
29724;SDS011;16636;48.394;15.468;2023-02-28T11:12:00;21.33;;;10.23;;
29724;SDS011;16636;48.394;15.468;2023-02-28T11:14:29;21.35;;;9.70;;
29724;SDS011;16636;48.394;15.468;2023-02-28T11:17:02;12.98;;;7.95;;
29724;SDS011;16636;48.394;15.468;2023-02-28T11:19:45;15.52;;;8.77;;
29724;SDS011;16636;48.394;15.468;2023-02-28T11:22:24;15.40;;;9.10;;
29724;SDS011;16636;48.394;15.468;2023-02-28T11:24:55;19.35;;;9.90;;
29724;SDS011;16636;48.394;15.468;2023-02-28T11:29:56;16.88;;;9.45;;
29724;SDS011;16636;48.394;15.468;2023-02-28T11:32:23;18.92;;;9.52;;
29724;SDS011;16636;48.394;15.468;2023-02-28T11:35:04;17.33;;;9.10;;
29724;SDS011;16636;48.394;15.468;2023-02-28T11:37:45;18.95;;;9.88;;
29724;SDS011;16636;48.394;15.468;2023-02-28T11:40:15;21.55;;;10.35;;
29724;SDS011;16636;48.394;15.468;2023-02-28T11:42:48;20.90;;;10.73;;
29724;SDS011;16636;48.394;15.468;2023-02-28T11:48:20;21.73;;;10.35;;
29724;SDS011;16636;48.394;15.468;2023-02-28T11:51:00;20.48;;;10.07;;
29724;SDS011;16636;48.394;15.468;2023-02-28T11:55:59;18.55;;;10.27;;
29724;SDS011;16636;48.394;15.468;2023-02-28T11:58:40;18.40;;;10.30;;
29724;SDS011;16636;48.394;15.468;2023-02-28T12:01:53;27.52;;;12.55;;
29724;SDS011;16636;48.394;15.468;2023-02-28T12:04:24;31.75;;;11.77;;
29724;SDS011;16636;48.394;15.468;2023-02-28T12:12:37;22.05;;;11.60;;
29724;SDS011;16636;48.394;15.468;2023-02-28T12:20:40;19.33;;;10.63;;
29724;SDS011;16636;48.394;15.468;2023-02-28T12:26:04;22.42;;;10.90;;
29724;SDS011;16636;48.394;15.468;2023-02-28T12:29:29;26.00;;;10.65;;
29724;SDS011;16636;48.394;15.468;2023-02-28T12:32:05;23.40;;;12.07;;
29724;SDS011;16636;48.394;15.468;2023-02-28T12:34:39;19.70;;;9.85;;
29724;SDS011;16636;48.394;15.468;2023-02-28T12:37:10;23.38;;;11.20;;
29724;SDS011;16636;48.394;15.468;2023-02-28T12:39:46;19.05;;;10.55;;
29724;SDS011;16636;48.394;15.468;2023-02-28T12:42:28;32.63;;;11.48;;
29724;SDS011;16636;48.394;15.468;2023-02-28T12:45:05;19.75;;;10.70;;
29724;SDS011;16636;48.394;15.468;2023-02-28T12:47:34;21.35;;;10.38;;
29724;SDS011;16636;48.394;15.468;2023-02-28T12:50:04;19.20;;;10.90;;
29724;SDS011;16636;48.394;15.468;2023-02-28T12:52:36;20.48;;;10.43;;
29724;SDS011;16636;48.394;15.468;2023-02-28T13:09:56;30.63;;;13.80;;
29724;SDS011;16636;48.394;15.468;2023-02-28T13:12:24;22.98;;;10.65;;
29724;SDS011;16636;48.394;15.468;2023-02-28T13:15:01;29.15;;;12.77;;
29724;SDS011;16636;48.394;15.468;2023-02-28T13:17:44;20.65;;;11.15;;
29724;SDS011;16636;48.394;15.468;2023-02-28T13:20:19;23.10;;;11.65;;
29724;SDS011;16636;48.394;15.468;2023-02-28T13:22:54;23.15;;;10.27;;
29724;SDS011;16636;48.394;15.468;2023-02-28T13:27:48;26.02;;;10.95;;
29724;SDS011;16636;48.394;15.468;2023-02-28T13:38:39;20.88;;;10.80;;
29724;SDS011;16636;48.394;15.468;2023-02-28T13:44:09;25.17;;;11.32;;
29724;SDS011;16636;48.394;15.468;2023-02-28T13:51:45;22.17;;;10.40;;
29724;SDS011;16636;48.394;15.468;2023-02-28T14:00:34;20.35;;;9.05;;
29724;SDS011;16636;48.394;15.468;2023-02-28T14:03:18;19.55;;;9.10;;
29724;SDS011;16636;48.394;15.468;2023-02-28T14:05:51;20.08;;;10.57;;
29724;SDS011;16636;48.394;15.468;2023-02-28T14:13:57;20.98;;;11.15;;
29724;SDS011;16636;48.394;15.468;2023-02-28T14:16:24;19.63;;;9.15;;
29724;SDS011;16636;48.394;15.468;2023-02-28T14:19:26;19.25;;;10.30;;
29724;SDS011;16636;48.394;15.468;2023-02-28T14:22:07;16.58;;;9.27;;
29724;SDS011;16636;48.394;15.468;2023-02-28T14:32:47;21.40;;;10.50;;
29724;SDS011;16636;48.394;15.468;2023-02-28T14:35:43;21.50;;;10.15;;
29724;SDS011;16636;48.394;15.468;2023-02-28T14:38:21;25.60;;;11.85;;
29724;SDS011;16636;48.394;15.468;2023-02-28T14:40:54;20.38;;;10.65;;
29724;SDS011;16636;48.394;15.468;2023-02-28T14:43:23;25.38;;;12.15;;
29724;SDS011;16636;48.394;15.468;2023-02-28T14:45:55;19.67;;;10.07;;
29724;SDS011;16636;48.394;15.468;2023-02-28T14:48:25;20.27;;;9.60;;
29724;SDS011;16636;48.394;15.468;2023-02-28T14:50:53;21.45;;;9.35;;
29724;SDS011;16636;48.394;15.468;2023-02-28T14:53:22;22.48;;;9.45;;
29724;SDS011;16636;48.394;15.468;2023-02-28T14:55:51;18.05;;;10.05;;
29724;SDS011;16636;48.394;15.468;2023-02-28T14:58:21;19.25;;;9.15;;
29724;SDS011;16636;48.394;15.468;2023-02-28T15:00:51;21.65;;;9.85;;
29724;SDS011;16636;48.394;15.468;2023-02-28T15:03:21;17.00;;;9.15;;
29724;SDS011;16636;48.394;15.468;2023-02-28T15:06:02;17.65;;;8.73;;
29724;SDS011;16636;48.394;15.468;2023-02-28T15:08:30;18.50;;;8.38;;
29724;SDS011;16636;48.394;15.468;2023-02-28T15:16:10;19.27;;;8.10;;
29724;SDS011;16636;48.394;15.468;2023-02-28T15:18:55;15.77;;;8.48;;
29724;SDS011;16636;48.394;15.468;2023-02-28T15:21:39;15.05;;;8.35;;
29724;SDS011;16636;48.394;15.468;2023-02-28T15:24:54;14.93;;;8.43;;
29724;SDS011;16636;48.394;15.468;2023-02-28T15:27:14;20.38;;;9.77;;
29724;SDS011;16636;48.394;15.468;2023-02-28T15:29:54;17.70;;;9.10;;
29724;SDS011;16636;48.394;15.468;2023-02-28T15:32:43;13.65;;;8.10;;
29724;SDS011;16636;48.394;15.468;2023-02-28T15:37:55;19.73;;;9.27;;
29724;SDS011;16636;48.394;15.468;2023-02-28T15:40:40;17.60;;;9.27;;
29724;SDS011;16636;48.394;15.468;2023-02-28T15:43:16;25.63;;;9.20;;
29724;SDS011;16636;48.394;15.468;2023-02-28T15:48:52;19.60;;;9.50;;
29724;SDS011;16636;48.394;15.468;2023-02-28T15:51:22;21.25;;;8.82;;
29724;SDS011;16636;48.394;15.468;2023-02-28T15:54:01;15.18;;;8.07;;
29724;SDS011;16636;48.394;15.468;2023-02-28T15:56:42;19.98;;;8.98;;
29724;SDS011;16636;48.394;15.468;2023-02-28T15:59:18;17.85;;;9.00;;
29724;SDS011;16636;48.394;15.468;2023-02-28T16:04:54;36.70;;;13.45;;
29724;SDS011;16636;48.394;15.468;2023-02-28T16:07:26;20.98;;;10.13;;
29724;SDS011;16636;48.394;15.468;2023-02-28T16:09:52;22.80;;;11.30;;
29724;SDS011;16636;48.394;15.468;2023-02-28T16:12:19;29.33;;;10.48;;
29724;SDS011;16636;48.394;15.468;2023-02-28T16:14:48;26.38;;;10.95;;
29724;SDS011;16636;48.394;15.468;2023-02-28T16:17:21;28.10;;;10.60;;
29724;SDS011;16636;48.394;15.468;2023-02-28T16:19:51;36.55;;;14.93;;
29724;SDS011;16636;48.394;15.468;2023-02-28T16:22:17;28.52;;;11.52;;
29724;SDS011;16636;48.394;15.468;2023-02-28T16:24:43;29.70;;;10.63;;
29724;SDS011;16636;48.394;15.468;2023-02-28T16:27:19;24.42;;;8.93;;
29724;SDS011;16636;48.394;15.468;2023-02-28T16:29:56;26.75;;;9.93;;
29724;SDS011;16636;48.394;15.468;2023-02-28T16:32:22;23.58;;;10.25;;
29724;SDS011;16636;48.394;15.468;2023-02-28T16:34:48;18.83;;;9.88;;
29724;SDS011;16636;48.394;15.468;2023-02-28T16:37:15;24.08;;;11.20;;
29724;SDS011;16636;48.394;15.468;2023-02-28T16:39:43;24.73;;;12.07;;
29724;SDS011;16636;48.394;15.468;2023-02-28T16:42:19;27.48;;;13.20;;
29724;SDS011;16636;48.394;15.468;2023-02-28T16:44:52;34.30;;;14.43;;
29724;SDS011;16636;48.394;15.468;2023-02-28T16:47:18;21.63;;;10.63;;
29724;SDS011;16636;48.394;15.468;2023-02-28T16:49:45;21.45;;;9.55;;
29724;SDS011;16636;48.394;15.468;2023-02-28T16:52:12;27.80;;;12.38;;
29724;SDS011;16636;48.394;15.468;2023-02-28T16:54:40;26.70;;;11.93;;
29724;SDS011;16636;48.394;15.468;2023-02-28T16:57:14;28.30;;;13.77;;
29724;SDS011;16636;48.394;15.468;2023-02-28T16:59:44;31.30;;;12.38;;
29724;SDS011;16636;48.394;15.468;2023-02-28T17:02:10;26.40;;;11.75;;